Time;durP1;ratioP1;P1;durP2;ratioP2;P2;SDS_P1;SDS_P2;PMS_P1;PMS_P2;Temp;Humidity;BMP_temperature;BMP_pressure;BME280_temperature;BME280_humidity;BME280_pressure;Samples;Min_cycle;Max_cycle;Signal;HPM_P1;HPM_P2
2023/04/05 00:00:58;;;;;;;;;;;;;;;0.79;61.81;96930.06;5034164;28;19947;-74
2023/04/05 00:03:24;;;;;;;;;;;;;;;0.79;61.78;96927.47;5034410;28;19975;-74
2023/04/05 00:05:53;;;;;;;;;;;;;;;0.82;61.64;96921.25;5033816;28;19954;-75
2023/04/05 00:08:22;;;;;;;;;;;;;;;0.86;61.90;96922.56;5034189;28;20309;-74
2023/04/05 00:10:49;;;;;;;;;;;;;;;0.88;62.22;96923.22;5034416;28;20300;-75
2023/04/05 00:13:15;;;;;;;;;;;;;;;0.88;62.75;96923.22;5034041;28;19985;-74
2023/04/05 00:15:41;;;;;;;;;;;;;;;0.88;63.22;96925.78;5033615;28;19956;-75
2023/04/05 00:18:07;;;;;;;;;;;;;;;0.86;63.72;96925.16;5033556;28;19935;-74
2023/04/05 00:20:36;;;;;;;;;;;;;;;0.87;63.43;96918.22;5033743;28;19944;-74
2023/04/05 00:23:02;;;;;;;;;;;;;;;0.85;62.02;96913.19;5015934;28;19948;-75
2023/04/05 00:25:27;;;;;;;;;;;;;;;0.86;62.46;96908.81;5016635;28;19997;-74
2023/04/05 00:27:53;;;;;;;;;;;;;;;0.86;62.46;96908.81;5034297;28;19935;-75
2023/04/05 00:30:22;;;;;;;;;;;;;;;0.86;62.78;96908.81;5015910;28;19945;-75
2023/04/05 00:32:49;;;;;;;;;;;;;;;0.87;62.21;96900.13;5033450;28;19944;-75
2023/04/05 00:35:15;;;;;;;;;;;;;;;0.86;61.63;96898.50;5033391;28;19942;-75
2023/04/05 00:37:41;;;;;;;;;;;;;;;0.86;61.68;96904.50;5033454;28;20439;-71
2023/04/05 00:40:07;;;;;;;;;;;;;;;0.84;62.28;96898.66;5016013;28;20005;-72
2023/04/05 00:42:33;;;;;;;;;;;;;;;0.84;61.77;96903.00;5016731;28;19956;-71
2023/04/05 00:44:59;;;;;;;;;;;;;;;0.82;62.73;96898.00;5033555;28;19952;-73
2023/04/05 00:47:25;;;;;;;;;;;;;;;0.78;62.77;96902.63;5033448;28;19940;-72
2023/04/05 00:49:51;;;;;;;;;;;;;;;0.79;63.02;96901.66;5033433;28;19947;-72
2023/04/05 00:52:18;;;;;;;;;;;;;;;0.79;63.07;96895.69;5032663;28;19950;-72
2023/04/05 00:54:44;;;;;;;;;;;;;;;0.76;63.90;96899.38;5034038;28;19971;-74
2023/04/05 00:57:10;;;;;;;;;;;;;;;0.73;63.97;96899.66;5033287;28;19951;-75
2023/04/05 00:59:36;;;;;;;;;;;;;;;0.72;63.76;96892.88;5033200;28;20001;-75
2023/04/05 01:02:16;;;;;;;;;;;;;;;0.72;63.95;96898.03;5033196;28;19944;-76
2023/04/05 01:04:48;;;;;;;;;;;;;;;0.72;63.31;96889.50;5016231;28;19943;-75
2023/04/05 01:07:37;;;;;;;;;;;;;;;0.69;63.36;96884.59;5033908;28;19939;-76
2023/04/05 01:10:04;;;;;;;;;;;;;;;0.63;63.78;96874.84;5027770;28;19946;-76
2023/04/05 01:12:31;;;;;;;;;;;;;;;0.64;63.97;96873.91;5032934;28;19957;-72
2023/04/05 01:14:58;;;;;;;;;;;;;;;0.62;64.11;96870.66;5033738;28;19948;-72
2023/04/05 01:17:27;;;;;;;;;;;;;;;0.60;64.32;96871.59;5032995;28;19951;-76
2023/04/05 01:19:57;;;;;;;;;;;;;;;0.59;64.36;96870.00;4999688;28;19961;-76
2023/04/05 01:22:52;;;;;;;;;;;;;;;0.56;64.09;96870.28;5015734;28;19951;-75
2023/04/05 01:25:37;;;;;;;;;;;;;;;0.54;65.17;96872.19;5024137;28;19960;-74
2023/04/05 01:28:22;;;;;;;;;;;;;;;0.52;65.23;96866.34;5033529;28;19955;-75
2023/04/05 01:30:57;;;;;;;;;;;;;;;0.49;64.95;96871.81;5033006;28;19948;-73
2023/04/05 01:33:22;;;;;;;;;;;;;;;0.45;65.36;96856.78;5016097;28;20272;-77
2023/04/05 01:35:55;;;;;;;;;;;;;;;0.45;65.70;96859.34;5015339;28;19984;-73
2023/04/05 01:38:24;;;;;;;;;;;;;;;0.44;65.26;96865.47;5032791;28;20386;-73
2023/04/05 01:40:50;;;;;;;;;;;;;;;0.43;65.36;96856.09;5033509;28;19950;-73
2023/04/05 01:43:17;;;;;;;;;;;;;;;0.42;65.22;96852.72;5019028;28;20392;-73
2023/04/05 01:45:43;;;;;;;;;;;;;;;0.43;65.52;96856.09;5036490;28;19945;-73
2023/04/05 01:48:09;;;;;;;;;;;;;;;0.42;66.49;96855.31;5037281;28;19941;-73
2023/04/05 01:50:35;;;;;;;;;;;;;;;0.41;66.06;96848.50;5037329;28;19946;-77
2023/04/05 01:53:01;;;;;;;;;;;;;;;0.45;77.87;96862.75;5036456;28;19938;-74
2023/04/05 01:55:27;;;;;;;;;;;;;;;0.54;68.47;96838.63;5018702;28;19951;-75
2023/04/05 01:57:56;;;;;;;;;;;;;;;0.56;66.90;96835.91;5018683;28;20001;-75
2023/04/05 02:00:22;;;;;;;;;;;;;;;0.54;66.86;96830.09;5036154;28;19959;-74
2023/04/05 02:02:48;;;;;;;;;;;;;;;0.52;66.41;96824.25;5036293;28;20031;-74
2023/04/05 02:05:14;;;;;;;;;;;;;;;0.48;66.56;96820.34;5036452;28;19995;-75
2023/04/05 02:07:40;;;;;;;;;;;;;;;0.44;66.40;96819.81;5036138;28;19945;-79
2023/04/05 02:10:06;;;;;;;;;;;;;;;0.40;66.91;96818.50;5036063;28;19948;-74
2023/04/05 02:12:32;;;;;;;;;;;;;;;0.37;66.63;96821.38;5036369;28;19945;-73
2023/04/05 02:14:58;;;;;;;;;;;;;;;0.33;66.94;96815.69;5036045;28;20038;-74
2023/04/05 02:17:24;;;;;;;;;;;;;;;0.33;67.09;96820.84;5018335;28;19984;-74
2023/04/05 02:19:51;;;;;;;;;;;;;;;0.31;67.04;96816.78;5017992;28;20319;-75
2023/04/05 02:22:18;;;;;;;;;;;;;;;0.29;67.13;96814.34;5035775;28;20392;-75
2023/04/05 02:24:44;;;;;;;;;;;;;;;0.28;67.16;96814.50;5035810;28;20383;-74
2023/04/05 02:27:10;;;;;;;;;;;;;;;0.26;67.14;96808.69;5035721;28;19945;-76
2023/04/05 02:29:36;;;;;;;;;;;;;;;0.23;67.03;96807.16;5035758;28;20298;-74
2023/04/05 02:32:01;;;;;;;;;;;;;;;0.20;67.91;96813.44;5035994;28;19942;-74
2023/04/05 02:34:27;;;;;;;;;;;;;;;0.19;67.60;96813.59;5036214;28;20030;-73
2023/04/05 02:36:53;;;;;;;;;;;;;;;0.17;67.64;96818.09;5036405;28;20007;-73
2023/04/05 02:39:19;;;;;;;;;;;;;;;0.14;67.70;96811.44;5035594;28;19955;-73
2023/04/05 02:41:45;;;;;;;;;;;;;;;0.16;67.37;96813.88;5035633;28;19941;-73
2023/04/05 02:44:11;;;;;;;;;;;;;;;0.12;67.52;96810.75;5035538;28;20458;-72
2023/04/05 02:46:37;;;;;;;;;;;;;;;0.11;67.54;96816.09;5018411;28;19951;-74
2023/04/05 02:49:03;;;;;;;;;;;;;;;0.08;67.46;96811.19;5036063;28;19934;-78
2023/04/05 02:51:29;;;;;;;;;;;;;;;0.05;67.57;96814.88;5018519;28;20385;-78
2023/04/05 02:53:55;;;;;;;;;;;;;;;0.02;67.26;96802.25;5034919;28;19992;-78
2023/04/05 02:56:21;;;;;;;;;;;;;;;0.01;66.74;96810.97;5035243;28;19948;-78
2023/04/05 02:58:48;;;;;;;;;;;;;;;-0.02;67.79;96819.78;5035293;28;19958;-78
2023/04/05 03:01:16;;;;;;;;;;;;;;;-0.04;67.29;96813.16;5035277;28;19951;-79
2023/04/05 03:03:42;;;;;;;;;;;;;;;-0.04;67.15;96816.56;5035468;28;20306;-73
2023/04/05 03:06:12;;;;;;;;;;;;;;;-0.06;67.20;96812.50;5035373;28;19941;-75
2023/04/05 03:08:42;;;;;;;;;;;;;;;-0.07;67.20;96805.69;5018019;28;20335;-74
2023/04/05 03:11:09;;;;;;;;;;;;;;;-0.09;67.17;96815.34;5001081;28;19952;-74
2023/04/05 03:13:35;;;;;;;;;;;;;;;-0.10;67.72;96813.72;5034768;28;20353;-74
2023/04/05 03:16:01;;;;;;;;;;;;;;;-0.12;67.81;96810.47;5035085;28;19955;-74
2023/04/05 03:18:28;;;;;;;;;;;;;;;-0.13;67.36;96806.25;5034700;28;19952;-75
2023/04/05 03:20:56;;;;;;;;;;;;;;;-0.15;67.33;96803.00;5035462;28;20368;-75
2023/04/05 03:23:26;;;;;;;;;;;;;;;-0.18;66.85;96803.31;5034676;28;19947;-71
2023/04/05 03:26:01;;;;;;;;;;;;;;;-0.21;66.85;96800.06;5016867;28;19951;-74
2023/04/05 03:28:28;;;;;;;;;;;;;;;-0.25;67.24;96808.22;5035267;28;20298;-74
2023/04/05 03:30:54;;;;;;;;;;;;;;;-0.29;67.10;96804.31;5035515;28;19945;-74
2023/04/05 03:33:20;;;;;;;;;;;;;;;-0.29;67.69;96802.53;5034642;28;20349;-74
2023/04/05 03:35:46;;;;;;;;;;;;;;;-0.31;67.51;96803.63;5000987;28;19948;-74
2023/04/05 03:38:12;;;;;;;;;;;;;;;-0.32;67.22;96800.22;5034246;28;19938;-74
2023/04/05 03:40:38;;;;;;;;;;;;;;;-0.32;66.71;96802.00;5034316;28;19965;-80
2023/04/05 03:43:04;;;;;;;;;;;;;;;-0.33;67.25;96801.19;5017648;28;19981;-74
2023/04/05 03:45:30;;;;;;;;;;;;;;;-0.34;67.96;96809.84;5034661;28;19951;-74
2023/04/05 03:47:59;;;;;;;;;;;;;;;-0.35;67.64;96804.88;5034787;28;19996;-75
2023/04/05 03:50:25;;;;;;;;;;;;;;;-0.37;67.54;96802.41;5017355;28;19943;-75
2023/04/05 03:52:51;;;;;;;;;;;;;;;-0.40;67.58;96805.25;5034232;28;19944;-74
2023/04/05 03:55:17;;;;;;;;;;;;;;;-0.42;67.91;96802.84;5034223;28;19945;-75
2023/04/05 03:57:43;;;;;;;;;;;;;;;-0.44;67.78;96809.09;5034493;28;19989;-73
2023/04/05 04:00:13;;;;;;;;;;;;;;;-0.46;67.54;96809.22;5034823;28;19969;-71
2023/04/05 04:02:43;;;;;;;;;;;;;;;-0.48;68.14;96810.34;5034036;28;19947;-74
2023/04/05 04:05:10;;;;;;;;;;;;;;;-0.49;68.12;96806.91;5033346;28;19941;-75
2023/04/05 04:07:36;;;;;;;;;;;;;;;-0.52;68.20;96798.69;5017190;28;20387;-74
2023/04/05 04:10:03;;;;;;;;;;;;;;;-0.54;67.99;96798.00;5000857;28;19948;-74
2023/04/05 04:12:29;;;;;;;;;;;;;;;-0.56;68.43;96797.31;5033813;28;19940;-75
2023/04/05 04:14:54;;;;;;;;;;;;;;;-0.60;68.30;96801.94;5034068;28;20037;-74
2023/04/05 04:17:26;;;;;;;;;;;;;;;-0.64;68.64;96803.97;5033929;28;19949;-79
2023/04/05 04:19:53;;;;;;;;;;;;;;;-0.67;69.42;96799.09;5034003;28;19954;-82
2023/04/05 04:22:19;;;;;;;;;;;;;;;-0.69;68.51;96798.44;5034787;28;19943;-78
2023/04/05 04:24:48;;;;;;;;;;;;;;;-0.72;69.13;96803.84;5016234;28;19948;-84
2023/04/05 04:27:15;;;;;;;;;;;;;;;-0.76;68.58;96799.91;5034388;28;19956;-82
2023/04/05 04:29:45;;;;;;;;;;;;;;;-0.80;68.58;96798.56;5034138;28;19953;-82
2023/04/05 04:32:14;;;;;;;;;;;;;;;-0.83;68.69;96796.28;5034303;28;19952;-82
2023/04/05 04:34:43;;;;;;;;;;;;;;;-0.84;68.90;96797.22;5034562;28;19946;-82
2023/04/05 04:37:16;;;;;;;;;;;;;;;-0.87;69.35;96792.34;5034267;28;19957;-75
2023/04/05 04:39:46;;;;;;;;;;;;;;;-0.90;69.05;96793.44;5016585;28;20437;-74
2023/04/05 04:42:12;;;;;;;;;;;;;;;-0.91;68.96;96796.97;5033924;28;20427;-75
2023/04/05 04:44:38;;;;;;;;;;;;;;;-0.92;69.34;96804.84;5016050;28;19938;-74
2023/04/05 04:47:11;;;;;;;;;;;;;;;-0.94;69.08;96801.59;5033599;28;19943;-76
2023/04/05 04:49:40;;;;;;;;;;;;;;;-0.96;69.54;96796.56;5034554;28;19942;-75
2023/04/05 04:52:06;;;;;;;;;;;;;;;-0.99;69.08;96796.03;5033619;28;19948;-76
2023/04/05 04:54:35;;;;;;;;;;;;;;;-1.00;69.43;96802.13;5033083;28;19954;-74
2023/04/05 04:57:01;;;;;;;;;;;;;;;-1.04;69.80;96804.97;5033563;28;20403;-74
2023/04/05 04:59:28;;;;;;;;;;;;;;;-1.07;69.70;96800.09;5033469;28;20320;-74
2023/04/05 05:01:54;;;;;;;;;;;;;;;-1.09;69.89;96804.56;5034026;28;19965;-74
2023/04/05 05:04:20;;;;;;;;;;;;;;;-1.08;69.32;96808.75;5033533;28;20402;-73
2023/04/05 05:06:49;;;;;;;;;;;;;;;-1.12;69.81;96807.41;5034243;28;20300;-74
2023/04/05 05:09:14;;;;;;;;;;;;;;;-1.13;69.74;96813.50;5033891;28;19942;-74
2023/04/05 05:11:40;;;;;;;;;;;;;;;-1.14;70.27;96813.66;5015571;28;19954;-72
2023/04/05 05:14:06;;;;;;;;;;;;;;;-1.15;69.61;96817.19;5033510;28;20031;-76
2023/04/05 05:16:32;;;;;;;;;;;;;;;-1.17;69.77;96814.72;5035296;28;19949;-80
2023/04/05 05:18:58;;;;;;;;;;;;;;;-1.15;70.32;96822.31;5037266;28;19939;-79
2023/04/05 05:21:25;;;;;;;;;;;;;;;-1.15;70.13;96822.31;5038133;28;19939;-78
2023/04/05 05:23:51;;;;;;;;;;;;;;;-1.15;70.80;96823.13;5037177;28;19944;-78
2023/04/05 05:26:17;;;;;;;;;;;;;;;-1.13;70.51;96816.09;5037135;28;19944;-79
2023/04/05 05:28:42;;;;;;;;;;;;;;;-1.03;70.50;96818.66;5037056;28;20011;-78
2023/04/05 05:31:08;;;;;;;;;;;;;;;-0.60;69.80;96809.66;5019478;28;19994;-79
2023/04/05 05:33:34;;;;;;;;;;;;;;;0.08;68.69;96804.25;5037848;28;19980;-74
2023/04/05 05:36:00;;;;;;;;;;;;;;;0.76;66.58;96793.53;5036835;28;19971;-74
2023/04/05 05:38:26;;;;;;;;;;;;;;;1.47;65.24;96791.81;5036802;28;19956;-75
2023/04/05 05:40:56;;;;;;;;;;;;;;;2.11;63.79;96784.53;5037306;28;19973;-75
2023/04/05 05:43:21;;;;;;;;;;;;;;;2.74;62.48;96782.44;5037217;28;20290;-75
2023/04/05 05:45:47;;;;;;;;;;;;;;;3.28;60.76;96776.78;5037030;28;19942;-75
2023/04/05 05:48:13;;;;;;;;;;;;;;;3.77;58.96;96768.91;5037552;28;19946;-75
2023/04/05 05:50:40;;;;;;;;;;;;;;;4.15;58.11;96771.69;5036761;28;20013;-76
2023/04/05 05:53:06;;;;;;;;;;;;;;;4.45;57.47;96777.84;5037104;28;19946;-76
2023/04/05 05:55:32;;;;;;;;;;;;;;;4.70;56.47;96788.09;5019510;28;19950;-75
2023/04/05 05:57:58;;;;;;;;;;;;;;;5.01;56.42;96782.84;5018632;28;20403;-75
2023/04/05 06:00:24;;;;;;;;;;;;;;;5.30;55.62;96782.13;5036342;28;20332;-75
2023/04/05 06:02:51;;;;;;;;;;;;;;;5.60;53.66;96779.56;5036896;28;19947;-75
2023/04/05 06:05:17;;;;;;;;;;;;;;;5.63;53.10;96784.44;5036376;28;19936;-74
2023/04/05 06:07:43;;;;;;;;;;;;;;;5.68;52.33;96785.50;5037268;28;19943;-78
2023/04/05 06:10:09;;;;;;;;;;;;;;;5.81;52.54;96777.06;5036392;28;20348;-79
2023/04/05 06:12:35;;;;;;;;;;;;;;;6.01;53.24;96779.97;5036629;28;19946;-79
2023/04/05 06:15:01;;;;;;;;;;;;;;;6.35;52.29;96785.59;5036889;28;19976;-80
2023/04/05 06:17:27;;;;;;;;;;;;;;;6.56;51.51;96777.03;5036158;28;19948;-80
2023/04/05 06:19:53;;;;;;;;;;;;;;;6.66;51.96;96775.72;5036111;28;19996;-79
2023/04/05 06:22:19;;;;;;;;;;;;;;;6.77;50.72;96774.44;5036117;28;20408;-80
2023/04/05 06:24:44;;;;;;;;;;;;;;;6.73;50.23;96777.59;5036658;28;19993;-83
2023/04/05 06:27:13;;;;;;;;;;;;;;;6.75;50.47;96778.22;5018341;28;19984;-73
2023/04/05 06:29:39;;;;;;;;;;;;;;;6.88;50.98;96776.53;5035805;28;19941;-83
2023/04/05 06:32:05;;;;;;;;;;;;;;;6.99;50.23;96779.63;5018325;28;19955;-85
2023/04/05 06:34:31;;;;;;;;;;;;;;;6.99;50.16;96782.25;5036641;28;19948;-81
2023/04/05 06:36:57;;;;;;;;;;;;;;;6.80;50.25;96781.88;5035748;28;20004;-81
2023/04/05 06:39:23;;;;;;;;;;;;;;;6.71;50.30;96781.19;5017793;28;19944;-80
2023/04/05 06:41:49;;;;;;;;;;;;;;;6.71;50.02;96783.78;5035958;28;20306;-82
2023/04/05 06:44:15;;;;;;;;;;;;;;;6.51;50.41;96782.78;5018013;28;19954;-75
2023/04/05 06:46:41;;;;;;;;;;;;;;;6.41;51.35;96779.66;5035606;28;19969;-76
2023/04/05 06:49:07;;;;;;;;;;;;;;;6.45;50.50;96786.13;5035780;28;20418;-75
2023/04/05 06:51:33;;;;;;;;;;;;;;;6.50;51.43;96788.97;5036260;28;19945;-73
2023/04/05 06:53:58;;;;;;;;;;;;;;;6.58;50.01;96788.88;5035666;28;19946;-73
2023/04/05 06:56:24;;;;;;;;;;;;;;;6.68;69.75;96818.06;5035414;28;19942;-73
2023/04/05 06:58:50;;;;;;;;;;;;;;;7.04;53.05;96790.34;5035455;28;19947;-73
2023/04/05 07:01:16;;;;;;;;;;;;;;;7.11;50.20;96792.00;5017627;28;20411;-73
2023/04/05 07:03:42;;;;;;;;;;;;;;;7.11;51.42;96792.00;5017620;28;20407;-71
2023/04/05 07:06:08;;;;;;;;;;;;;;;7.03;49.79;96791.31;5035457;28;20366;-80
2023/04/05 07:08:34;;;;;;;;;;;;;;;6.92;50.80;96797.84;5035119;28;19946;-80
2023/04/05 07:11:00;;;;;;;;;;;;;;;6.74;51.10;96797.44;5018188;28;19993;-79
2023/04/05 07:13:26;;;;;;;;;;;;;;;6.43;51.44;96794.13;5034883;28;20002;-79
2023/04/05 07:15:58;;;;;;;;;;;;;;;6.43;52.59;96807.13;5035556;28;19949;-80
2023/04/05 07:18:24;;;;;;;;;;;;;;;6.45;51.78;96799.94;5017744;28;19947;-79
2023/04/05 07:20:50;;;;;;;;;;;;;;;6.43;51.74;96796.72;5034884;28;19959;-80
2023/04/05 07:23:16;;;;;;;;;;;;;;;6.57;51.46;96802.88;5034850;28;20436;-77
2023/04/05 07:25:42;;;;;;;;;;;;;;;6.59;51.55;96797.47;5035732;28;19952;-74
2023/04/05 07:28:08;;;;;;;;;;;;;;;6.52;51.34;96796.63;5034917;28;20326;-75
2023/04/05 07:30:35;;;;;;;;;;;;;;;6.47;52.17;96794.56;5016960;28;19946;-75
2023/04/05 07:33:01;;;;;;;;;;;;;;;6.56;52.03;96800.47;5035223;28;19948;-75
2023/04/05 07:35:28;;;;;;;;;;;;;;;6.73;52.02;96796.63;5034987;28;19988;-74
2023/04/05 07:37:55;;;;;;;;;;;;;;;6.96;51.87;96793.06;5033782;28;19962;-75
2023/04/05 07:40:20;;;;;;;;;;;;;;;7.04;51.53;96791.13;5015799;28;19962;-78
2023/04/05 07:42:46;;;;;;;;;;;;;;;7.27;51.97;96792.75;5017486;28;19986;-78
2023/04/05 07:45:12;;;;;;;;;;;;;;;7.47;51.16;96791.06;5000089;28;19941;-79
2023/04/05 07:47:38;;;;;;;;;;;;;;;7.52;50.56;96795.75;5034907;28;20393;-78
2023/04/05 07:50:05;;;;;;;;;;;;;;;7.33;51.07;96797.22;5000754;28;19943;-78
2023/04/05 07:52:31;;;;;;;;;;;;;;;7.08;50.96;96797.59;5016512;28;19939;-78
2023/04/05 07:54:57;;;;;;;;;;;;;;;6.90;50.68;96802.44;5017332;28;19949;-78
2023/04/05 07:57:23;;;;;;;;;;;;;;;6.97;50.89;96803.31;5017068;28;19951;-78
2023/04/05 07:59:51;;;;;;;;;;;;;;;7.02;51.08;96797.53;5016228;28;19945;-75
2023/04/05 08:02:17;;;;;;;;;;;;;;;7.11;50.91;96807.63;5016711;28;19945;-75
2023/04/05 08:04:43;;;;;;;;;;;;;;;7.18;49.46;96794.69;5034192;28;19949;-75
2023/04/05 08:07:09;;;;;;;;;;;;;;;7.14;50.01;96795.22;5016008;28;20480;-75
2023/04/05 08:09:35;;;;;;;;;;;;;;;7.16;50.12;96799.28;5033629;28;19993;-75
2023/04/05 08:12:01;;;;;;;;;;;;;;;7.13;49.22;96804.06;5033861;28;19947;-75
2023/04/05 08:14:27;;;;;;;;;;;;;;;7.33;49.72;96797.22;5033826;28;19968;-75
2023/04/05 08:16:54;;;;;;;;;;;;;;;7.57;50.56;96798.59;5015879;28;19947;-74
2023/04/05 08:19:19;;;;;;;;;;;;;;;7.87;50.01;96795.75;5033631;28;19943;-81
2023/04/05 08:21:45;;;;;;;;;;;;;;;7.89;47.41;96796.38;5033648;28;19963;-82
2023/04/05 08:24:11;;;;;;;;;;;;;;;7.97;48.70;96800.66;5034160;28;19981;-82
2023/04/05 08:26:37;;;;;;;;;;;;;;;8.19;48.40;96796.13;5033609;28;19955;-82
2023/04/05 08:29:03;;;;;;;;;;;;;;;8.40;47.92;96790.00;5033625;28;19980;-82
2023/04/05 08:31:29;;;;;;;;;;;;;;;8.44;46.44;96789.47;5034263;28;20466;-83
2023/04/05 08:33:55;;;;;;;;;;;;;;;8.32;46.63;96789.16;5033563;28;19950;-82
2023/04/05 08:36:20;;;;;;;;;;;;;;;8.37;47.47;96796.41;5034122;28;19968;-75
2023/04/05 08:38:46;;;;;;;;;;;;;;;8.46;46.07;96792.69;5033349;28;19995;-79
2023/04/05 08:41:20;;;;;;;;;;;;;;;8.44;44.19;96788.63;5015691;28;19967;-78
2023/04/05 08:43:56;;;;;;;;;;;;;;;8.39;45.50;96789.19;5015733;28;20336;-78
2023/04/05 08:46:23;;;;;;;;;;;;;;;8.47;44.60;96788.25;5000025;28;19948;-78
2023/04/05 08:48:49;;;;;;;;;;;;;;;8.40;42.93;96787.38;5016216;28;19944;-79
2023/04/05 08:51:22;;;;;;;;;;;;;;;8.41;43.77;96789.03;5019701;28;19949;-79
2023/04/05 08:53:48;;;;;;;;;;;;;;;8.22;45.34;96788.72;5023165;28;19955;-77
2023/04/05 08:56:15;;;;;;;;;;;;;;;8.37;47.21;96796.41;5022826;28;19942;-73
2023/04/05 08:58:47;;;;;;;;;;;;;;;8.53;44.13;96787.47;5039718;28;19952;-73
2023/04/05 09:01:13;;;;;;;;;;;;;;;8.51;44.95;96787.66;5022809;28;19971;-74
2023/04/05 09:03:41;;;;;;;;;;;;;;;8.19;43.59;96783.91;5039686;28;19942;-73
2023/04/05 09:06:08;;;;;;;;;;;;;;;8.05;44.13;96785.63;5039849;28;19935;-73
2023/04/05 09:08:33;;;;;;;;;;;;;;;7.71;43.27;96779.41;5039910;28;20327;-73
2023/04/05 09:10:59;;;;;;;;;;;;;;;7.71;45.42;96791.66;5039818;28;19949;-76
2023/04/05 09:13:25;;;;;;;;;;;;;;;7.63;44.86;96787.38;5039668;28;19987;-76
2023/04/05 09:15:53;;;;;;;;;;;;;;;7.57;43.38;96780.31;5039418;28;20459;-77
2023/04/05 09:18:19;;;;;;;;;;;;;;;7.68;44.08;96787.59;5022435;28;19947;-76
2023/04/05 09:20:45;;;;;;;;;;;;;;;7.72;42.22;96785.44;5039810;28;20012;-77
2023/04/05 09:23:11;;;;;;;;;;;;;;;7.68;44.93;96790.22;5006497;28;19988;-77
2023/04/05 09:25:38;;;;;;;;;;;;;;;7.81;42.59;96793.91;5039586;28;20356;-77
2023/04/05 09:28:05;;;;;;;;;;;;;;;7.72;43.61;96788.84;5039626;28;19945;-76
2023/04/05 09:30:32;;;;;;;;;;;;;;;7.66;43.19;96788.81;5021780;28;19967;-75
2023/04/05 09:32:58;;;;;;;;;;;;;;;7.78;43.22;96791.69;5040277;28;19954;-77
2023/04/05 09:35:27;;;;;;;;;;;;;;;7.96;43.69;96789.41;5021666;28;19951;-77
2023/04/05 09:37:57;;;;;;;;;;;;;;;8.14;43.62;96791.50;5039386;28;19967;-77
2023/04/05 09:40:23;;;;;;;;;;;;;;;8.29;43.24;96786.13;4978459;28;20109;-77
2023/04/05 09:42:51;;;;;;;;;;;;;;;8.44;43.51;96788.63;4978631;28;20284;-78
2023/04/05 09:45:17;;;;;;;;;;;;;;;8.61;42.34;96789.09;4978708;28;20422;-77
2023/04/05 09:47:52;;;;;;;;;;;;;;;8.51;38.16;96785.03;4979012;28;19987;-72
2023/04/05 09:50:19;;;;;;;;;;;;;;;8.41;41.53;96786.41;4979250;28;20282;-76
2023/04/05 09:52:45;;;;;;;;;;;;;;;8.39;39.05;96788.38;4978474;28;19942;-72
2023/04/05 09:55:12;;;;;;;;;;;;;;;8.38;38.90;96786.75;4978549;28;19943;-73
2023/04/05 09:57:38;;;;;;;;;;;;;;;8.44;44.21;96783.41;4978306;28;19937;-73
2023/04/05 10:00:05;;;;;;;;;;;;;;;8.54;41.66;96787.25;4978553;28;19937;-73
2023/04/05 10:02:38;;;;;;;;;;;;;;;8.73;42.73;96777.88;4975868;28;19942;-73
2023/04/05 10:05:10;;;;;;;;;;;;;;;8.79;41.03;96773.66;4976284;28;19961;-73
2023/04/05 10:07:36;;;;;;;;;;;;;;;8.56;37.09;96774.00;4976193;28;19944;-77
2023/04/05 10:10:03;;;;;;;;;;;;;;;8.35;39.62;96769.69;4975439;28;19944;-77
2023/04/05 10:12:30;;;;;;;;;;;;;;;8.17;38.11;96772.84;5031917;28;19945;-77
2023/04/05 10:14:57;;;;;;;;;;;;;;;8.00;37.98;96767.13;5019123;28;20390;-77
2023/04/05 10:17:26;;;;;;;;;;;;;;;7.93;39.66;96771.50;5018220;28;19943;-77
2023/04/05 10:20:10;;;;;;;;;;;;;;;7.99;41.42;96770.72;5018067;28;19945;-76
2023/04/05 10:22:40;;;;;;;;;;;;;;;8.06;39.76;96768.97;5035735;28;20342;-77
2023/04/05 10:25:15;;;;;;;;;;;;;;;8.26;39.59;96763.81;5036165;28;19949;-75
2023/04/05 10:27:45;;;;;;;;;;;;;;;8.27;37.95;96760.22;5036371;28;19940;-76
2023/04/05 10:30:11;;;;;;;;;;;;;;;8.46;41.19;96757.88;5035517;28;19949;-75
2023/04/05 10:32:56;;;;;;;;;;;;;;;8.65;40.04;96759.75;5035383;28;19943;-75
2023/04/05 10:35:27;;;;;;;;;;;;;;;8.84;37.57;96752.13;5035532;28;19941;-75
2023/04/05 10:38:12;;;;;;;;;;;;;;;8.98;38.89;96750.34;5035505;28;20422;-75
2023/04/05 10:40:42;;;;;;;;;;;;;;;9.11;37.68;96742.50;5035618;28;19959;-74
2023/04/05 10:43:14;;;;;;;;;;;;;;;9.26;38.10;96744.91;5013641;28;19948;-73
2023/04/05 10:45:40;;;;;;;;;;;;;;;9.54;39.33;96753.34;5014453;28;20421;-71
2023/04/05 10:48:20;;;;;;;;;;;;;;;9.90;39.32;96753.91;5014082;28;20405;-78
2023/04/05 10:50:46;;;;;;;;;;;;;;;10.27;47.56;96754.19;4997935;28;19953;-77
2023/04/05 10:53:12;;;;;;;;;;;;;;;10.74;39.55;96750.34;5013811;28;19939;-80
2023/04/05 10:55:38;;;;;;;;;;;;;;;11.14;48.84;96755.31;5013317;28;20328;-77
2023/04/05 10:58:04;;;;;;;;;;;;;;;11.71;40.06;96744.72;5013473;28;19950;-79
2023/04/05 11:00:31;;;;;;;;;;;;;;;11.89;35.70;96741.34;5013669;28;19956;-80
2023/04/05 11:02:57;;;;;;;;;;;;;;;11.55;35.80;96735.59;5013405;28;20420;-77
2023/04/05 11:05:29;;;;;;;;;;;;;;;11.36;36.61;96742.63;5013172;28;19950;-70
2023/04/05 11:07:58;;;;;;;;;;;;;;;11.30;35.88;96740.06;4980604;28;19953;-71
2023/04/05 11:10:24;;;;;;;;;;;;;;;11.23;35.53;96740.09;5013066;28;19951;-70
2023/04/05 11:12:51;;;;;;;;;;;;;;;10.95;31.81;96741.31;5012882;28;20474;-71
2023/04/05 11:15:30;;;;;;;;;;;;;;;10.92;37.50;96746.22;5014771;28;19950;-71
2023/04/05 11:18:02;;;;;;;;;;;;;;;11.11;36.12;96737.38;5014967;28;19942;-70
2023/04/05 11:20:41;;;;;;;;;;;;;;;11.20;37.40;96731.88;5015633;28;19940;-76
2023/04/05 11:23:07;;;;;;;;;;;;;;;11.02;35.16;96722.09;5014854;28;19945;-72
2023/04/05 11:25:36;;;;;;;;;;;;;;;10.66;35.19;96726.19;5013572;28;19948;-72
2023/04/05 11:28:04;;;;;;;;;;;;;;;10.03;35.29;96719.78;5014781;28;19940;-72
2023/04/05 11:30:45;;;;;;;;;;;;;;;9.60;36.11;96724.78;5015522;28;20318;-72
2023/04/05 11:33:31;;;;;;;;;;;;;;;9.74;36.68;96718.47;5015197;28;20276;-74
2023/04/05 11:36:03;;;;;;;;;;;;;;;10.24;37.43;96712.66;5014764;28;19963;-73
2023/04/05 11:38:29;;;;;;;;;;;;;;;10.38;35.91;96713.44;5015128;28;20411;-72
2023/04/05 11:41:10;;;;;;;;;;;;;;;10.45;36.57;96709.75;5014125;28;20007;-72
2023/04/05 11:43:37;;;;;;;;;;;;;;;10.52;34.26;96709.72;5014618;28;19941;-76
2023/04/05 11:46:06;;;;;;;;;;;;;;;10.81;35.52;96707.50;5014481;28;19946;-76
2023/04/05 11:48:33;;;;;;;;;;;;;;;11.15;36.41;96708.88;5014508;28;19946;-77
2023/04/05 11:50:59;;;;;;;;;;;;;;;11.64;36.12;96704.59;5014430;28;19950;-76
2023/04/05 11:53:25;;;;;;;;;;;;;;;12.14;34.99;96698.41;5014416;28;19946;-76
2023/04/05 11:55:51;;;;;;;;;;;;;;;12.39;36.24;96696.47;5014370;28;19946;-77
2023/04/05 11:58:18;;;;;;;;;;;;;;;12.53;36.68;96701.53;5013029;28;20386;-76
2023/04/05 12:00:45;;;;;;;;;;;;;;;12.57;32.42;96694.78;5014034;28;19972;-73
2023/04/05 12:03:14;;;;;;;;;;;;;;;12.25;32.74;96687.13;5013946;28;19950;-73
2023/04/05 12:05:44;;;;;;;;;;;;;;;12.13;33.50;96683.66;5013654;28;19949;-73
2023/04/05 12:08:10;;;;;;;;;;;;;;;12.25;32.73;96679.25;5014032;28;19944;-73
2023/04/05 12:10:35;;;;;;;;;;;;;;;12.36;35.37;96675.84;5014702;28;19954;-73
2023/04/05 12:13:01;;;;;;;;;;;;;;;12.32;33.55;96674.69;5020082;28;19968;-73
2023/04/05 12:15:27;;;;;;;;;;;;;;;12.56;33.47;96674.78;5034121;28;19947;-76
2023/04/05 12:17:53;;;;;;;;;;;;;;;12.84;32.99;96665.47;5016075;28;19951;-76
2023/04/05 12:20:20;;;;;;;;;;;;;;;12.61;33.50;96659.13;5033820;28;20362;-70
2023/04/05 12:22:47;;;;;;;;;;;;;;;12.49;36.19;96677.50;4999439;28;19970;-71
2023/04/05 12:25:14;;;;;;;;;;;;;;;12.76;38.06;96677.09;5032827;28;20402;-72
2023/04/05 12:27:40;;;;;;;;;;;;;;;12.98;36.73;96675.56;5015754;28;19973;-70
2023/04/05 12:30:06;;;;;;;;;;;;;;;13.11;32.12;96671.91;5033423;28;19945;-70
2023/04/05 12:32:36;;;;;;;;;;;;;;;13.18;32.54;96674.41;5016166;28;20014;-71
2023/04/05 12:35:05;;;;;;;;;;;;;;;13.17;37.87;96665.72;5034411;28;19952;-78
2023/04/05 12:37:32;;;;;;;;;;;;;;;13.26;31.36;96663.53;4999443;28;20320;-76
2023/04/05 12:40:01;;;;;;;;;;;;;;;13.31;33.06;96660.25;5033385;28;20401;-77
2023/04/05 12:42:30;;;;;;;;;;;;;;;13.22;30.84;96658.97;5033196;28;19961;-76
2023/04/05 12:45:03;;;;;;;;;;;;;;;13.05;32.13;96664.13;5033352;28;20432;-76
2023/04/05 12:47:31;;;;;;;;;;;;;;;12.90;31.54;96664.56;5033499;28;19941;-77
2023/04/05 12:49:57;;;;;;;;;;;;;;;12.83;30.77;96663.84;5033320;28;20435;-76
2023/04/05 12:52:26;;;;;;;;;;;;;;;12.80;30.38;96657.22;5033744;28;19953;-74
2023/04/05 12:54:55;;;;;;;;;;;;;;;12.52;29.89;96655.22;5033867;28;19946;-73